createdAt,value
2024-03-05T00:00:25.242Z,89.54
2024-03-05T00:01:25.280Z,89.54
2024-03-05T00:02:25.233Z,89.54
2024-03-05T00:03:25.204Z,89.54
2024-03-05T00:04:25.211Z,89.54
2024-03-05T00:05:25.161Z,89.54
2024-03-05T00:06:25.161Z,89.64
2024-03-05T00:07:25.175Z,89.64
2024-03-05T00:08:25.126Z,89.69
2024-03-05T00:09:25.117Z,89.79
2024-03-05T00:10:25.118Z,89.79
2024-03-05T00:11:25.173Z,89.89
2024-03-05T00:12:25.083Z,89.89
2024-03-05T00:13:25.091Z,89.89
2024-03-05T00:14:25.049Z,89.89
2024-03-05T00:15:25.026Z,89.89
2024-03-05T00:16:25.057Z,89.79
2024-03-05T00:17:25.015Z,89.79
2024-03-05T00:18:24.996Z,89.89
2024-03-05T00:19:25.024Z,90.00
2024-03-05T00:20:24.962Z,90.00
2024-03-05T00:21:24.966Z,90.09
2024-03-05T00:22:24.953Z,90.20
2024-03-05T00:23:24.915Z,90.20
2024-03-05T00:24:24.900Z,90.20
2024-03-05T00:25:24.936Z,90.20
2024-03-05T00:26:24.894Z,90.20
2024-03-05T00:27:24.859Z,90.20
2024-03-05T00:28:24.903Z,90.20
2024-03-05T00:29:24.850Z,90.20
2024-03-05T00:30:24.824Z,90.20
2024-03-05T00:31:24.864Z,90.30
2024-03-05T00:32:24.795Z,90.41
2024-03-05T00:33:24.800Z,90.51
2024-03-05T00:34:24.852Z,90.51
2024-03-05T00:35:24.769Z,90.41
2024-03-05T00:36:24.760Z,90.41
2024-03-05T00:37:24.734Z,90.41
2024-03-05T00:38:32.519Z,90.41
2024-03-05T00:39:25.710Z,90.30
2024-03-05T00:40:24.724Z,90.41
2024-03-05T00:41:24.700Z,90.41
2024-03-05T00:42:24.661Z,90.41
2024-03-05T00:43:24.667Z,90.30
2024-03-05T00:44:24.636Z,90.20
2024-03-05T00:45:24.665Z,90.20
2024-03-05T00:46:24.607Z,90.09
2024-03-05T00:47:24.642Z,90.09
2024-03-05T00:48:24.648Z,90.20
2024-03-05T00:49:24.630Z,90.41
2024-03-05T00:50:24.628Z,90.41
2024-03-05T00:51:24.536Z,90.51
2024-03-05T00:52:24.531Z,90.51
2024-03-05T00:53:24.522Z,90.61
2024-03-05T00:54:24.511Z,90.51
2024-03-05T00:55:24.535Z,90.41
2024-03-05T00:56:24.465Z,90.41
2024-03-05T00:57:24.463Z,90.30
2024-03-05T00:58:24.467Z,90.30
2024-03-05T00:59:24.439Z,90.20
2024-03-05T01:00:24.417Z,90.30
2024-03-05T01:01:24.461Z,90.30
2024-03-05T01:02:24.802Z,90.41
2024-03-05T01:03:24.368Z,90.41
2024-03-05T01:04:24.454Z,90.41
2024-03-05T01:05:24.340Z,90.41
2024-03-05T01:06:24.330Z,90.51
2024-03-05T01:07:24.342Z,90.51
2024-03-05T01:08:24.338Z,90.51
2024-03-05T01:09:24.327Z,90.41
2024-03-05T01:10:24.344Z,90.41
2024-03-05T01:11:24.283Z,90.30
2024-03-05T01:12:24.249Z,90.20
2024-03-05T01:13:24.254Z,90.20
2024-03-05T01:14:24.219Z,90.20
2024-03-05T01:15:24.202Z,90.20
2024-03-05T01:16:24.244Z,90.30
2024-03-05T01:17:24.177Z,90.41
2024-03-05T01:18:24.197Z,90.51
2024-03-05T01:19:24.166Z,90.51
2024-03-05T01:20:24.214Z,90.61
2024-03-05T01:21:24.160Z,90.61
2024-03-05T01:22:24.182Z,90.51
2024-03-05T01:23:24.136Z,90.51
2024-03-05T01:24:24.092Z,90.41
2024-03-05T01:25:24.097Z,90.30
2024-03-05T01:26:24.073Z,90.20
2024-03-05T01:27:24.060Z,90.09
2024-03-05T01:28:24.052Z,90.00
2024-03-05T01:29:24.018Z,90.00
2024-03-05T01:30:24.009Z,90.00
2024-03-05T01:31:24.043Z,90.09
2024-03-05T01:32:23.992Z,90.09
2024-03-05T01:33:23.984Z,90.30
2024-03-05T01:34:23.980Z,90.41
2024-03-05T01:35:23.938Z,90.51
2024-03-05T01:36:23.944Z,90.61
2024-03-05T01:37:23.971Z,90.72
2024-03-05T01:38:23.906Z,90.81
2024-03-05T01:39:23.880Z,90.92
2024-03-05T01:40:23.893Z,90.92
2024-03-05T01:41:23.867Z,90.81
2024-03-05T01:42:23.857Z,90.81
2024-03-05T01:43:23.843Z,90.72
2024-03-05T01:44:23.867Z,90.72
2024-03-05T01:45:23.804Z,90.72
2024-03-05T01:46:23.825Z,90.72
2024-03-05T01:47:23.771Z,90.81
2024-03-05T01:48:23.759Z,90.81
2024-03-05T01:49:23.778Z,90.92
2024-03-05T01:50:23.876Z,90.92
2024-03-05T01:51:23.735Z,90.81
2024-03-05T01:52:23.736Z,90.81
2024-03-05T01:53:23.685Z,90.86
2024-03-05T01:54:23.699Z,91.06
2024-03-05T01:55:23.733Z,91.17
2024-03-05T01:56:23.661Z,91.38
2024-03-05T01:57:23.640Z,91.38
2024-03-05T01:58:23.652Z,91.27
2024-03-05T01:59:23.616Z,91.27
2024-03-05T02:00:23.622Z,91.27
2024-03-05T02:01:23.652Z,91.17
2024-03-05T02:02:26.331Z,91.17
2024-03-05T02:03:23.554Z,91.06
2024-03-05T02:04:23.601Z,90.96
2024-03-05T02:05:23.557Z,90.96
2024-03-05T02:06:23.540Z,90.96
2024-03-05T02:07:23.514Z,90.96
2024-03-05T02:08:23.502Z,91.06
2024-03-05T02:09:23.498Z,91.17
2024-03-05T02:10:23.507Z,91.27
2024-03-05T02:11:23.466Z,91.17
2024-03-05T02:12:23.619Z,91.17
2024-03-05T02:13:23.463Z,91.06
2024-03-05T02:14:23.447Z,90.86
2024-03-05T02:15:23.421Z,90.86
2024-03-05T02:16:23.418Z,90.75
2024-03-05T02:17:23.405Z,90.86
2024-03-05T02:18:23.369Z,90.86
2024-03-05T02:19:23.370Z,90.96
2024-03-05T02:20:23.357Z,90.96
2024-03-05T02:21:23.316Z,91.06
2024-03-05T02:22:23.413Z,91.06
2024-03-05T02:23:23.314Z,90.96
2024-03-05T02:24:23.289Z,90.96
2024-03-05T02:25:23.263Z,90.96
2024-03-05T02:26:23.245Z,91.06
2024-03-05T02:27:27.486Z,91.06
2024-03-05T02:28:24.247Z,91.06
2024-03-05T02:29:23.204Z,91.06
2024-03-05T02:30:23.192Z,91.17
2024-03-05T02:31:23.200Z,91.06
2024-03-05T02:32:23.163Z,90.96
2024-03-05T02:33:23.168Z,90.86
2024-03-05T02:34:23.163Z,90.86
2024-03-05T02:35:23.131Z,90.86
2024-03-05T02:36:23.154Z,90.90
2024-03-05T02:37:23.142Z,91.00
2024-03-05T02:38:23.095Z,91.00
2024-03-05T02:39:23.072Z,91.00
2024-03-05T02:40:23.100Z,91.00
2024-03-05T02:41:23.068Z,91.11
2024-03-05T02:42:23.050Z,91.11
2024-03-05T02:43:24.258Z,91.21
2024-03-05T02:44:23.019Z,91.21
2024-03-05T02:45:23.006Z,91.21
2024-03-05T02:46:23.011Z,91.21
2024-03-05T02:47:23.007Z,91.21
2024-03-05T02:48:22.947Z,91.21
2024-03-05T02:49:22.987Z,91.21
2024-03-05T02:50:22.921Z,91.21
2024-03-05T02:51:22.931Z,91.21
2024-03-05T02:52:22.939Z,91.25
2024-03-05T02:53:22.885Z,91.25
2024-03-05T02:54:22.893Z,91.25
2024-03-05T02:55:22.910Z,91.36
2024-03-05T02:56:22.896Z,91.25
2024-03-05T02:57:22.864Z,91.15
2024-03-05T02:58:22.847Z,91.15
2024-03-05T02:59:22.811Z,91.05
2024-03-05T03:00:22.840Z,90.94
2024-03-05T03:01:22.832Z,90.94
2024-03-05T03:02:22.812Z,91.05
2024-03-05T03:03:22.770Z,91.05
2024-03-05T03:04:22.750Z,91.15
2024-03-05T03:05:23.087Z,91.15
2024-03-05T03:06:22.723Z,91.15
2024-03-05T03:07:22.779Z,91.15
2024-03-05T03:08:22.680Z,91.19
2024-03-05T03:09:22.689Z,91.19
2024-03-05T03:10:22.693Z,91.30
2024-03-05T03:11:22.762Z,91.30
2024-03-05T03:12:22.643Z,91.30
2024-03-05T03:13:22.644Z,91.30
2024-03-05T03:14:22.601Z,91.30
2024-03-05T03:15:22.608Z,91.40
2024-03-05T03:16:22.612Z,91.50
2024-03-05T03:17:22.572Z,91.60
2024-03-05T03:18:22.596Z,91.64
2024-03-05T03:19:22.561Z,91.64
2024-03-05T03:20:22.555Z,91.54
2024-03-05T03:21:22.524Z,91.54
2024-03-05T03:22:22.520Z,91.64
2024-03-05T03:23:22.521Z,91.64
2024-03-05T03:24:22.475Z,91.64
2024-03-05T03:25:22.520Z,91.64
2024-03-05T03:26:22.483Z,91.64
2024-03-05T03:27:22.443Z,91.64
2024-03-05T03:28:22.451Z,91.64
2024-03-05T03:29:22.433Z,91.64
2024-03-05T03:30:22.423Z,91.64
2024-03-05T03:31:22.473Z,91.64
2024-03-05T03:32:22.389Z,91.64
2024-03-05T03:33:22.365Z,91.64
2024-03-05T03:34:22.380Z,91.64
2024-03-05T03:35:22.348Z,91.64
2024-03-05T03:36:22.323Z,91.54
2024-03-05T03:37:22.352Z,91.64
2024-03-05T03:38:22.295Z,91.85
2024-03-05T03:39:22.302Z,91.85
2024-03-05T03:40:22.607Z,91.85
2024-03-05T03:41:22.269Z,91.89
2024-03-05T03:42:22.242Z,91.96
2024-03-05T03:43:22.258Z,92.06
2024-03-05T03:44:22.236Z,92.06
2024-03-05T03:45:22.312Z,92.06
2024-03-05T03:46:22.218Z,92.06
2024-03-05T03:47:22.186Z,92.16
2024-03-05T03:48:22.193Z,92.16
2024-03-05T03:49:22.187Z,92.06
2024-03-05T03:50:22.138Z,92.06
2024-03-05T03:51:22.131Z,92.41
2024-03-05T03:52:22.156Z,92.61
2024-03-05T03:53:22.140Z,92.78
2024-03-05T03:54:22.152Z,92.88
2024-03-05T03:55:22.100Z,92.88
2024-03-05T03:56:22.061Z,92.78
2024-03-05T03:57:22.069Z,92.78
2024-03-05T03:58:22.108Z,92.78
2024-03-05T03:59:22.049Z,92.78
2024-03-05T04:00:22.022Z,92.78
2024-03-05T04:01:22.169Z,92.68
2024-03-05T04:02:22.002Z,92.68
2024-03-05T04:03:22.016Z,92.68
2024-03-05T04:04:21.999Z,92.68
2024-03-05T04:05:21.966Z,92.78
2024-03-05T04:06:21.934Z,92.78
2024-03-05T04:07:21.989Z,92.78
2024-03-05T04:08:21.925Z,92.78
2024-03-05T04:09:21.909Z,92.78
2024-03-05T04:10:22.031Z,92.68
2024-03-05T04:11:21.930Z,92.68
2024-03-05T04:12:21.877Z,92.68
2024-03-05T04:13:21.890Z,92.68
2024-03-05T04:14:21.845Z,92.78
2024-03-05T04:15:21.855Z,92.88
2024-03-05T04:16:21.856Z,92.99
2024-03-05T04:17:21.825Z,92.88
2024-03-05T04:18:21.790Z,92.78
2024-03-05T04:19:21.809Z,92.78
2024-03-05T04:20:21.757Z,92.68
2024-03-05T04:21:21.769Z,92.53
2024-03-05T04:22:21.783Z,92.43
2024-03-05T04:23:21.737Z,92.43
2024-03-05T04:24:21.746Z,92.33
2024-03-05T04:25:21.720Z,92.22
2024-03-05T04:26:21.696Z,92.22
2024-03-05T04:27:21.679Z,92.12
2024-03-05T04:28:21.708Z,92.22
2024-03-05T04:29:21.648Z,92.22
2024-03-05T04:30:21.627Z,92.33
2024-03-05T04:31:21.673Z,92.33
2024-03-05T04:32:21.629Z,92.33
2024-03-05T04:33:21.678Z,92.33
2024-03-05T04:34:21.793Z,92.33
2024-03-05T04:35:21.584Z,92.33
2024-03-05T04:36:21.574Z,92.33
2024-03-05T04:37:21.574Z,92.43
2024-03-05T04:38:21.526Z,92.43
2024-03-05T04:39:21.534Z,92.43
2024-03-05T04:40:21.544Z,92.33
2024-03-05T04:41:21.535Z,92.33
2024-03-05T04:42:21.464Z,92.33
2024-03-05T04:43:21.512Z,92.22
2024-03-05T04:44:21.441Z,92.33
2024-03-05T04:45:21.466Z,92.33
2024-03-05T04:46:21.470Z,92.33
2024-03-05T04:47:21.421Z,92.33
2024-03-05T04:48:21.394Z,92.47
2024-03-05T04:49:21.458Z,92.53
2024-03-05T04:50:21.380Z,92.57
2024-03-05T04:51:21.367Z,92.68
2024-03-05T04:52:21.400Z,92.68
2024-03-05T04:53:21.342Z,92.68
2024-03-05T04:54:21.334Z,92.78
2024-03-05T04:55:21.334Z,92.88
2024-03-05T04:56:21.288Z,92.94
2024-03-05T04:57:21.282Z,92.94
2024-03-05T04:58:21.287Z,92.84
2024-03-05T04:59:21.272Z,92.84
2024-03-05T05:00:21.727Z,92.74
2024-03-05T05:01:21.432Z,92.53
2024-03-05T05:02:21.212Z,92.33
2024-03-05T05:03:21.221Z,92.08
2024-03-05T05:04:21.218Z,91.77
2024-03-05T05:05:21.325Z,91.46
2024-03-05T05:06:21.154Z,91.40
2024-03-05T05:07:21.267Z,91.40
2024-03-05T05:08:21.145Z,91.40
2024-03-05T05:09:21.120Z,91.50
2024-03-05T05:10:21.117Z,91.60
2024-03-05T05:11:21.198Z,91.71
2024-03-05T05:12:21.083Z,91.81
2024-03-05T05:13:21.137Z,91.91
2024-03-05T05:14:21.077Z,92.02
2024-03-05T05:15:21.035Z,92.12
2024-03-05T05:16:21.073Z,92.22
2024-03-05T05:17:21.020Z,92.33
2024-03-05T05:18:21.014Z,92.33
2024-03-05T05:19:21.007Z,92.53
2024-03-05T05:20:20.982Z,92.63
2024-03-05T05:21:20.957Z,92.63
2024-03-05T05:22:20.999Z,92.74
2024-03-05T05:23:20.942Z,92.74
2024-03-05T05:24:20.927Z,92.84
2024-03-05T05:25:21.458Z,92.74
2024-03-05T05:26:20.908Z,92.59
2024-03-05T05:27:20.900Z,92.29
2024-03-05T05:28:20.939Z,91.97
2024-03-05T05:29:31.170Z,91.66
2024-03-05T05:30:21.851Z,91.46
2024-03-05T05:31:20.905Z,91.46
2024-03-05T05:32:20.826Z,91.46
2024-03-05T05:33:20.802Z,91.36
2024-03-05T05:34:20.835Z,91.21
2024-03-05T05:35:20.776Z,91.11
2024-03-05T05:36:20.769Z,90.90
2024-03-05T05:37:20.869Z,90.80
2024-03-05T05:38:20.741Z,90.84
2024-03-05T05:39:20.720Z,90.84
2024-03-05T05:40:21.867Z,90.94
2024-03-05T05:41:20.704Z,91.15
2024-03-05T05:42:20.698Z,91.46
2024-03-05T05:43:20.717Z,91.66
2024-03-05T05:44:20.644Z,91.87
2024-03-05T05:45:20.635Z,91.97
2024-03-05T05:46:20.650Z,91.97
2024-03-05T05:47:20.869Z,92.08
2024-03-05T05:48:20.627Z,91.97
2024-03-05T05:49:20.676Z,91.97
2024-03-05T05:50:20.758Z,91.87
2024-03-05T05:51:20.581Z,91.87
2024-03-05T05:52:20.583Z,91.77
2024-03-05T05:53:20.524Z,91.77
2024-03-05T05:54:22.831Z,91.66
2024-03-05T05:55:20.549Z,91.56
2024-03-05T05:56:20.507Z,91.56
2024-03-05T05:57:20.520Z,91.46
2024-03-05T05:58:20.474Z,91.56
2024-03-05T05:59:20.447Z,91.56
2024-03-05T06:00:20.489Z,91.71
2024-03-05T06:01:20.536Z,91.81
2024-03-05T06:02:20.490Z,91.91
2024-03-05T06:03:20.397Z,92.12
2024-03-05T06:04:20.399Z,92.33
2024-03-05T06:05:20.379Z,92.33
2024-03-05T06:06:20.350Z,92.43
2024-03-05T06:07:20.359Z,92.33
2024-03-05T06:08:20.316Z,92.33
2024-03-05T06:09:20.324Z,92.33
2024-03-05T06:10:20.389Z,92.33
2024-03-05T06:11:20.399Z,92.22
2024-03-05T06:12:22.207Z,92.22
2024-03-05T06:13:20.263Z,92.22
2024-03-05T06:14:20.266Z,92.22
2024-03-05T06:15:20.236Z,92.22
2024-03-05T06:16:20.290Z,92.22
2024-03-05T06:17:20.196Z,92.22
2024-03-05T06:18:20.226Z,92.22
2024-03-05T06:19:20.236Z,92.33
2024-03-05T06:20:20.186Z,92.43
2024-03-05T06:21:20.149Z,92.43
2024-03-05T06:22:27.004Z,92.53
2024-03-05T06:23:21.245Z,92.53
2024-03-05T06:24:20.123Z,92.68
2024-03-05T06:25:20.174Z,92.78
2024-03-05T06:26:20.091Z,92.99
2024-03-05T06:27:20.089Z,93.19
2024-03-05T06:28:20.096Z,93.30
2024-03-05T06:29:20.054Z,93.30
2024-03-05T06:30:20.024Z,93.30
2024-03-05T06:31:20.037Z,93.30
2024-03-05T06:32:20.005Z,93.25
2024-03-05T06:33:20.004Z,93.15
2024-03-05T06:34:20.004Z,92.84
2024-03-05T06:35:19.981Z,92.63
2024-03-05T06:36:19.957Z,92.53
2024-03-05T06:37:19.961Z,92.43
2024-03-05T06:38:19.932Z,92.43
2024-03-05T06:39:19.946Z,92.43
2024-03-05T06:40:19.907Z,92.43
2024-03-05T06:41:19.878Z,92.43
2024-03-05T06:42:19.889Z,92.33
2024-03-05T06:43:19.886Z,92.33
2024-03-05T06:44:19.836Z,92.33
2024-03-05T06:45:19.880Z,92.33
2024-03-05T06:46:19.936Z,92.43
2024-03-05T06:47:19.817Z,92.43
2024-03-05T06:48:19.839Z,92.43
2024-03-05T06:49:19.805Z,92.43
2024-03-05T06:50:19.763Z,92.43
2024-03-05T06:51:19.763Z,92.53
2024-03-05T06:52:19.787Z,92.63
2024-03-05T06:53:19.720Z,92.74
2024-03-05T06:54:19.709Z,92.74
2024-03-05T06:55:19.711Z,92.63
2024-03-05T06:56:19.705Z,92.74
2024-03-05T06:57:19.672Z,92.74
2024-03-05T06:58:19.675Z,92.63
2024-03-05T06:59:19.647Z,92.63
2024-03-05T07:00:19.655Z,92.53
2024-03-05T07:01:19.764Z,92.63
2024-03-05T07:02:19.632Z,92.74
2024-03-05T07:03:19.582Z,92.84
2024-03-05T07:04:19.592Z,92.84
2024-03-05T07:05:19.564Z,92.84
2024-03-05T07:06:19.565Z,92.84
2024-03-05T07:07:19.583Z,92.74
2024-03-05T07:08:19.521Z,92.63
2024-03-05T07:09:19.506Z,92.74
2024-03-05T07:10:19.535Z,92.74
2024-03-05T07:11:19.795Z,92.74
2024-03-05T07:12:19.467Z,92.74
2024-03-05T07:13:19.477Z,92.84
2024-03-05T07:14:19.523Z,92.84
2024-03-05T07:15:19.440Z,93.05
2024-03-05T07:16:19.898Z,93.15
2024-03-05T07:17:19.421Z,93.35
2024-03-05T07:18:19.382Z,93.46
2024-03-05T07:19:19.404Z,93.56
2024-03-05T07:20:19.398Z,93.66
2024-03-05T07:21:19.360Z,93.66
2024-03-05T07:22:19.354Z,93.66
2024-03-05T07:23:19.323Z,93.66
2024-03-05T07:24:19.319Z,93.66
2024-03-05T07:25:19.328Z,93.66
2024-03-05T07:26:19.328Z,93.56
2024-03-05T07:27:19.258Z,93.56
2024-03-05T07:28:19.270Z,93.56
2024-03-05T07:29:19.250Z,93.56
2024-03-05T07:30:19.241Z,93.56
2024-03-05T07:31:20.047Z,93.56
2024-03-05T07:32:19.201Z,93.56
2024-03-05T07:33:19.205Z,93.66
2024-03-05T07:34:19.224Z,93.77
2024-03-05T07:35:19.160Z,93.87
2024-03-05T07:36:19.398Z,93.77
2024-03-05T07:37:19.195Z,93.66
2024-03-05T07:38:19.154Z,93.66
2024-03-05T07:39:19.105Z,93.56
2024-03-05T07:40:21.845Z,93.56
2024-03-05T07:41:27.038Z,93.66
2024-03-05T07:42:20.093Z,93.77
2024-03-05T07:43:19.102Z,93.87
2024-03-05T07:44:19.047Z,93.87
2024-03-05T07:45:19.034Z,93.98
2024-03-05T07:46:19.041Z,93.98
2024-03-05T07:47:19.019Z,93.98
2024-03-05T07:48:19.089Z,93.98
2024-03-05T07:49:19.071Z,94.08
2024-03-05T07:50:18.987Z,94.18
2024-03-05T07:51:24.513Z,94.18
2024-03-05T07:52:19.983Z,94.18
2024-03-05T07:53:18.940Z,94.18
2024-03-05T07:54:18.924Z,94.13
2024-03-05T07:55:23.807Z,94.13
2024-03-05T07:56:19.935Z,94.24
2024-03-05T07:57:18.884Z,94.24
2024-03-05T07:58:18.969Z,94.24
2024-03-05T07:59:18.850Z,94.34
2024-03-05T08:00:18.850Z,94.34
2024-03-05T08:01:18.963Z,94.45
2024-03-05T08:02:18.855Z,94.55
2024-03-05T08:03:18.805Z,94.65
2024-03-05T08:04:18.829Z,94.65
2024-03-05T08:05:18.767Z,94.76
2024-03-05T08:06:18.819Z,94.85
2024-03-05T08:07:18.798Z,94.85
2024-03-05T08:08:18.762Z,94.85
2024-03-05T08:09:18.722Z,94.85
2024-03-05T08:10:18.737Z,94.85
2024-03-05T08:11:18.763Z,94.85
2024-03-05T08:12:21.685Z,94.76
2024-03-05T08:13:18.678Z,94.76
2024-03-05T08:14:18.645Z,94.76
2024-03-05T08:15:18.640Z,94.76
2024-03-05T08:16:18.652Z,94.76
2024-03-05T08:17:18.600Z,94.76
2024-03-05T08:18:18.651Z,94.81
2024-03-05T08:19:18.623Z,94.81
2024-03-05T08:20:18.578Z,94.96
2024-03-05T08:21:18.552Z,95.02
2024-03-05T08:22:18.546Z,95.02
2024-03-05T08:23:18.513Z,95.02
2024-03-05T08:24:18.536Z,94.92
2024-03-05T08:25:18.537Z,94.81
2024-03-05T08:26:18.527Z,94.81
2024-03-05T08:27:18.471Z,94.71
2024-03-05T08:28:18.470Z,94.71
2024-03-05T08:29:18.451Z,94.60
2024-03-05T08:30:18.468Z,94.60
2024-03-05T08:31:18.462Z,94.60
2024-03-05T08:32:18.398Z,94.51
2024-03-05T08:33:18.378Z,94.51
2024-03-05T08:34:18.427Z,94.51
2024-03-05T08:35:18.362Z,94.60
2024-03-05T08:36:18.344Z,94.60
2024-03-05T08:37:18.340Z,94.71
2024-03-05T08:38:18.317Z,94.71
2024-03-05T08:39:18.317Z,94.71
2024-03-05T08:40:18.391Z,94.81
2024-03-05T08:41:18.271Z,94.92
2024-03-05T08:42:18.261Z,95.02
2024-03-05T08:43:18.287Z,95.02
2024-03-05T08:44:18.297Z,94.92
2024-03-05T08:45:18.223Z,94.81
2024-03-05T08:46:18.295Z,94.92
2024-03-05T08:47:18.189Z,95.02
2024-03-05T08:48:18.307Z,95.12
2024-03-05T08:49:18.298Z,95.23
2024-03-05T08:50:18.154Z,95.12
2024-03-05T08:51:18.141Z,95.12
2024-03-05T08:52:18.206Z,94.92
2024-03-05T08:53:18.124Z,94.92
2024-03-05T08:54:18.495Z,94.92
2024-03-05T08:55:18.114Z,95.02
2024-03-05T08:56:18.071Z,95.12
2024-03-05T08:57:18.058Z,95.12
2024-03-05T08:58:18.091Z,95.12
2024-03-05T08:59:18.036Z,95.02
2024-03-05T09:00:28.313Z,95.02
2024-03-05T09:01:19.100Z,95.02
2024-03-05T09:02:18.036Z,95.12
2024-03-05T09:03:17.988Z,95.12
2024-03-05T09:04:18.018Z,95.23
2024-03-05T09:05:17.951Z,95.33
2024-03-05T09:06:17.934Z,95.43
2024-03-05T09:07:17.977Z,95.33
2024-03-05T09:08:17.940Z,95.33
2024-03-05T09:09:17.887Z,95.33
2024-03-05T09:10:17.896Z,95.23
2024-03-05T09:11:17.934Z,95.12
2024-03-05T09:12:17.878Z,95.12
2024-03-05T09:13:17.885Z,95.23
2024-03-05T09:14:17.836Z,95.23
2024-03-05T09:15:17.811Z,95.23
2024-03-05T09:16:17.937Z,95.23
2024-03-05T09:17:17.802Z,95.33
2024-03-05T09:18:17.849Z,95.43
2024-03-05T09:19:17.822Z,95.43
2024-03-05T09:20:17.748Z,95.53
2024-03-05T09:21:18.219Z,95.53
2024-03-05T09:22:17.797Z,95.53
2024-03-05T09:23:17.760Z,95.43
2024-03-05T09:24:17.693Z,95.33
2024-03-05T09:25:17.671Z,95.33
2024-03-05T09:26:17.677Z,95.18
2024-03-05T09:27:17.650Z,95.23
2024-03-05T09:28:17.694Z,95.28
2024-03-05T09:29:17.682Z,95.28
2024-03-05T09:30:17.670Z,95.23
2024-03-05T09:31:17.642Z,95.23
2024-03-05T09:32:17.583Z,95.23
2024-03-05T09:33:17.609Z,95.23
2024-03-05T09:34:17.569Z,95.23
2024-03-05T09:35:17.573Z,95.18
2024-03-05T09:36:17.534Z,95.18
2024-03-05T09:37:17.507Z,95.12
2024-03-05T09:38:17.522Z,95.12
2024-03-05T09:39:17.478Z,94.98
2024-03-05T09:40:17.500Z,94.98
2024-03-05T09:41:17.461Z,94.87
2024-03-05T09:42:17.452Z,94.87
2024-03-05T09:43:17.430Z,94.77
2024-03-05T09:44:17.468Z,94.67
2024-03-05T09:45:18.188Z,94.67
2024-03-05T09:46:17.394Z,94.67
2024-03-05T09:47:17.377Z,94.67
2024-03-05T09:48:17.397Z,94.56
2024-03-05T09:49:22.665Z,94.46
2024-03-05T09:50:19.080Z,94.15
2024-03-05T09:51:17.351Z,93.95
2024-03-05T09:52:17.357Z,93.95
2024-03-05T09:53:17.329Z,93.95
2024-03-05T09:54:17.296Z,93.95
2024-03-05T09:55:17.262Z,93.95
2024-03-05T09:56:17.283Z,94.05
2024-03-05T09:57:17.331Z,94.15
2024-03-05T09:58:17.242Z,94.36
2024-03-05T09:59:17.231Z,94.56
2024-03-05T10:00:17.210Z,94.67
2024-03-05T10:01:17.207Z,94.87
2024-03-05T10:02:17.426Z,94.98
2024-03-05T10:03:17.223Z,95.08
2024-03-05T10:04:17.310Z,94.98
2024-03-05T10:05:17.913Z,94.87
2024-03-05T10:06:17.177Z,94.87
2024-03-05T10:07:17.118Z,94.87
2024-03-05T10:08:17.159Z,94.87
2024-03-05T10:09:17.089Z,94.98
2024-03-05T10:10:17.158Z,94.98
2024-03-05T10:11:17.196Z,94.98
2024-03-05T10:12:17.048Z,94.98
2024-03-05T10:13:17.053Z,94.98
2024-03-05T10:14:17.033Z,95.08
2024-03-05T10:15:16.993Z,95.08
2024-03-05T10:16:16.990Z,95.08
2024-03-05T10:17:16.960Z,95.18
2024-03-05T10:18:17.024Z,95.28
2024-03-05T10:19:16.946Z,95.39
2024-03-05T10:20:16.945Z,95.49
2024-03-05T10:21:16.919Z,95.49
2024-03-05T10:22:16.905Z,95.59
2024-03-05T10:23:16.910Z,95.59
2024-03-05T10:24:16.885Z,95.55
2024-03-05T10:25:16.861Z,95.55
2024-03-05T10:26:16.857Z,95.55
2024-03-05T10:27:16.852Z,95.55
2024-03-05T10:28:16.861Z,95.59
2024-03-05T10:29:16.817Z,95.49
2024-03-05T10:30:16.804Z,95.34
2024-03-05T10:31:16.792Z,95.45
2024-03-05T10:32:16.790Z,95.45
2024-03-05T10:33:16.800Z,95.45
2024-03-05T10:34:16.753Z,95.03
2024-03-05T10:35:16.754Z,94.83
2024-03-05T10:36:16.727Z,94.73
2024-03-05T10:37:16.725Z,94.62
2024-03-05T10:38:16.695Z,94.52
2024-03-05T10:39:16.680Z,94.52
2024-03-05T10:40:16.681Z,94.52
2024-03-05T10:41:16.656Z,94.62
2024-03-05T10:42:16.665Z,94.73
2024-03-05T10:43:16.653Z,94.83
2024-03-05T10:44:16.855Z,94.93
2024-03-05T10:45:16.632Z,95.09
2024-03-05T10:46:16.608Z,95.09
2024-03-05T10:47:16.593Z,94.99
2024-03-05T10:48:16.935Z,94.89
2024-03-05T10:49:16.593Z,94.78
2024-03-05T10:50:16.547Z,94.68
2024-03-05T10:51:16.557Z,94.48
2024-03-05T10:52:16.518Z,94.27
2024-03-05T10:53:16.506Z,94.27
2024-03-05T10:54:16.491Z,94.27
2024-03-05T10:55:16.473Z,94.33
2024-03-05T10:56:17.911Z,94.33
2024-03-05T10:57:16.441Z,94.33
2024-03-05T10:58:16.433Z,94.12
2024-03-05T10:59:16.424Z,93.92
2024-03-05T11:00:16.408Z,93.92
2024-03-05T11:01:16.479Z,94.12
2024-03-05T11:02:16.405Z,94.23
2024-03-05T11:03:16.349Z,94.12
2024-03-05T11:04:16.344Z,93.96
2024-03-05T11:05:16.437Z,93.96
2024-03-05T11:06:16.322Z,93.96
2024-03-05T11:07:18.156Z,94.27
2024-03-05T11:08:17.051Z,94.37
2024-03-05T11:09:16.273Z,94.48
2024-03-05T11:10:16.251Z,94.48
2024-03-05T11:11:16.499Z,94.48
2024-03-05T11:12:16.230Z,94.58
2024-03-05T11:13:16.218Z,94.58
2024-03-05T11:14:16.280Z,94.58
2024-03-05T11:15:16.210Z,94.58
2024-03-05T11:16:16.185Z,94.48
2024-03-05T11:17:16.179Z,94.43
2024-03-05T11:18:16.140Z,94.43
2024-03-05T11:19:16.138Z,94.23
2024-03-05T11:20:16.192Z,93.92
2024-03-05T11:21:16.143Z,93.92
2024-03-05T11:22:16.092Z,93.92
2024-03-05T11:23:16.088Z,93.92
2024-03-05T11:24:16.084Z,93.92
2024-03-05T11:25:16.067Z,94.02
2024-03-05T11:26:16.041Z,94.02
2024-03-05T11:27:16.033Z,94.02
2024-03-05T11:28:16.016Z,94.02
2024-03-05T11:29:16.014Z,94.02
2024-03-05T11:30:15.998Z,94.02
2024-03-05T11:31:17.762Z,93.92
2024-03-05T11:32:15.960Z,93.92
2024-03-05T11:33:15.991Z,94.02
2024-03-05T11:34:15.948Z,94.02
2024-03-05T11:35:15.937Z,94.12
2024-03-05T11:36:15.910Z,94.07
2024-03-05T11:37:16.170Z,94.17
2024-03-05T11:38:15.883Z,94.27
2024-03-05T11:39:16.193Z,94.33
2024-03-05T11:40:15.866Z,94.43
2024-03-05T11:41:15.912Z,94.43
2024-03-05T11:42:15.832Z,94.54
2024-03-05T11:43:15.813Z,94.64
2024-03-05T11:44:15.833Z,94.84
2024-03-05T11:45:15.803Z,94.95
2024-03-05T11:46:15.779Z,94.95
2024-03-05T11:47:15.886Z,95.05
2024-03-05T11:48:15.845Z,95.05
2024-03-05T11:49:15.762Z,94.95
2024-03-05T11:50:15.796Z,94.95
2024-03-05T11:51:15.711Z,94.90
2024-03-05T11:52:15.721Z,94.90
2024-03-05T11:53:15.918Z,94.80
2024-03-05T11:54:15.740Z,94.59
2024-03-05T11:55:15.668Z,94.59
2024-03-05T11:56:15.631Z,94.49
2024-03-05T11:57:15.615Z,94.39
2024-03-05T11:58:15.623Z,94.49
2024-03-05T11:59:15.598Z,94.49
2024-03-05T12:00:15.579Z,94.59
2024-03-05T12:01:15.569Z,94.59
2024-03-05T12:02:15.645Z,94.59
2024-03-05T12:03:15.554Z,94.65
2024-03-05T12:04:15.525Z,94.65
2024-03-05T12:05:15.696Z,94.55
2024-03-05T12:06:15.499Z,94.55
2024-03-05T12:07:15.504Z,94.55
2024-03-05T12:08:15.479Z,94.65
2024-03-05T12:09:15.465Z,94.65
2024-03-05T12:10:15.476Z,94.65
2024-03-05T12:11:15.608Z,94.45
2024-03-05T12:12:15.687Z,94.34
2024-03-05T12:13:15.422Z,94.24
2024-03-05T12:14:15.393Z,94.34
2024-03-05T12:15:15.381Z,94.45
2024-03-05T12:16:15.364Z,94.76
2024-03-05T12:17:15.367Z,94.85
2024-03-05T12:18:15.371Z,94.85
2024-03-05T12:19:15.330Z,94.96
2024-03-05T12:20:15.348Z,94.96
2024-03-05T12:21:15.310Z,95.06
2024-03-05T12:22:15.311Z,94.96
2024-03-05T12:23:15.367Z,94.76
2024-03-05T12:24:16.273Z,94.85
2024-03-05T12:25:15.237Z,94.96
2024-03-05T12:26:15.251Z,95.06
2024-03-05T12:27:15.248Z,95.27
2024-03-05T12:28:15.206Z,95.37
2024-03-05T12:29:15.283Z,95.57
2024-03-05T12:30:15.181Z,95.68
2024-03-05T12:31:15.174Z,95.68
2024-03-05T12:32:15.229Z,95.68
2024-03-05T12:33:15.150Z,95.68
2024-03-05T12:34:15.113Z,95.53
2024-03-05T12:35:15.153Z,95.53
2024-03-05T12:36:15.094Z,95.43
2024-03-05T12:37:15.090Z,95.53
2024-03-05T12:38:15.116Z,95.53
2024-03-05T12:39:15.055Z,95.43
2024-03-05T12:40:15.044Z,95.37
2024-03-05T12:41:15.070Z,95.17
2024-03-05T12:42:15.329Z,95.17
2024-03-05T12:43:14.995Z,95.02
2024-03-05T12:44:14.984Z,95.02
2024-03-05T12:45:15.004Z,95.02
2024-03-05T12:46:14.969Z,95.12
2024-03-05T12:47:15.614Z,95.12
2024-03-05T12:48:14.962Z,95.12
2024-03-05T12:49:14.912Z,95.12
2024-03-05T12:50:14.971Z,95.02
2024-03-05T12:51:15.628Z,94.92
2024-03-05T12:52:14.869Z,94.81